Saint Marys, Ohio
Current Conditions -  °F | °C
As of 8:33 PM on Thursday 27 Nov 2014 (Local Time) from KAXV Reporting Station
Overcast Overcast  
Wind Chill: 22°   Ceiling: 1800
Heat Index: 30°   Visibility: 10mi
Dew Point: 25°   Wind: 9mph
Humidity: 80%   Direction: 280°W
Pressure: 30.33"   Gusts: 17mph
Location:  40.54°N, 84.39°W
Report Text: KAXV 280133Z AUTO 28008G15KT 10SM OVC018 M01/M04 A3033 RMK AO2
Loading
Personal Weather Stations






























Interactive Weather Map New forecast layout! Learn more

10-Day Weather Forecast

Advertisements
Track Severe Weather on mobile